BOX462 LSZH-LMML
Flight info
| Callsign | BOX462 |
|---|---|
| Flight time | 1h 52m |
| Altitude | 34000 |
| Route | VEBIT T53 GERSA DCT SOSON/N0479F350 DCT ODINA DCT BAKRO DCT RONAB DCT MARON DCT EKOLA L12 GZO |
| Aircraft | B77L/H-SDE1E2E3FGHIJ2J3J4J5M1RWXY/LB1D1 |
Departure
| Time | 2026-05-06 17:06 |
|---|---|
| Airport | Zürich Airport (LSZH) |
Arrival
| Time | 2026-05-06 18:58 |
|---|---|
| Airport | Malta International Airport (LMML) |
| Time | Latitude | Longitude | Altitude | Speed | Heading |
|---|---|---|---|---|---|
| 2026-05-06 16:34 | 47.44285 | 8.56086 | 1410 ft | 0 kts | 245° |
| 2026-05-06 16:52 | 47.44293 | 8.56114 | 1411 ft | 4 kts | 254° |
| 2026-05-06 16:52 | 47.44293 | 8.56147 | 1411 ft | 4 kts | 312° |
| 2026-05-06 16:52 | 47.44274 | 8.56167 | 1409 ft | 1 kts | 335° |
| 2026-05-06 16:52 | 47.44273 | 8.56168 | 1409 ft | 2 kts | 335° |
| 2026-05-06 16:56 | 47.44273 | 8.56167 | 1402 ft | 1 kts | 335° |
| 2026-05-06 16:57 | 47.44296 | 8.56151 | 1411 ft | 7 kts | 334° |
| 2026-05-06 16:57 | 47.44352 | 8.56106 | 1406 ft | 11 kts | 326° |
| 2026-05-06 16:57 | 47.44428 | 8.56039 | 1410 ft | 14 kts | 333° |
| 2026-05-06 16:57 | 47.44520 | 8.55973 | 1411 ft | 15 kts | 334° |
| 2026-05-06 16:58 | 47.44615 | 8.55907 | 1409 ft | 15 kts | 335° |
| 2026-05-06 16:58 | 47.44699 | 8.55851 | 1410 ft | 12 kts | 336° |
| 2026-05-06 16:58 | 47.44793 | 8.55787 | 1404 ft | 16 kts | 336° |
| 2026-05-06 16:58 | 47.44907 | 8.55707 | 1410 ft | 19 kts | 336° |
| 2026-05-06 16:59 | 47.45028 | 8.55626 | 1411 ft | 19 kts | 335° |
| 2026-05-06 16:59 | 47.45148 | 8.55545 | 1409 ft | 19 kts | 335° |
| 2026-05-06 16:59 | 47.45267 | 8.55462 | 1410 ft | 19 kts | 335° |
| 2026-05-06 16:59 | 47.45387 | 8.55378 | 1410 ft | 19 kts | 334° |
| 2026-05-06 17:00 | 47.45507 | 8.55297 | 1410 ft | 19 kts | 335° |
| 2026-05-06 17:00 | 47.45618 | 8.55221 | 1410 ft | 14 kts | 342° |
| 2026-05-06 17:00 | 47.45658 | 8.55218 | 1407 ft | 1 kts | 11° |
| 2026-05-06 17:00 | 47.45670 | 8.55229 | 1408 ft | 6 kts | 39° |
| 2026-05-06 17:01 | 47.45671 | 8.55396 | 1404 ft | 20 kts | 96° |
| 2026-05-06 17:01 | 47.45653 | 8.55664 | 1402 ft | 29 kts | 95° |
| 2026-05-06 17:01 | 47.45632 | 8.55971 | 1410 ft | 31 kts | 96° |
| 2026-05-06 17:01 | 47.45618 | 8.56154 | 1411 ft | 9 kts | 97° |
| 2026-05-06 17:02 | 47.45610 | 8.56255 | 1405 ft | 12 kts | 95° |
| 2026-05-06 17:02 | 47.45603 | 8.56393 | 1412 ft | 15 kts | 94° |
| 2026-05-06 17:02 | 47.45592 | 8.56559 | 1409 ft | 18 kts | 97° |
| 2026-05-06 17:02 | 47.45572 | 8.56752 | 1408 ft | 20 kts | 95° |
| 2026-05-06 17:03 | 47.45560 | 8.56940 | 1411 ft | 15 kts | 95° |
| 2026-05-06 17:03 | 47.45576 | 8.57021 | 1408 ft | 0 kts | 355° |
| 2026-05-06 17:03 | 47.45580 | 8.57021 | 1409 ft | 0 kts | 357° |
| 2026-05-06 17:04 | 47.45590 | 8.57021 | 1411 ft | 7 kts | 359° |
| 2026-05-06 17:04 | 47.45652 | 8.57007 | 1417 ft | 7 kts | 313° |
| 2026-05-06 17:04 | 47.45664 | 8.56952 | 1417 ft | 0 kts | 277° |
| 2026-05-06 17:05 | 47.45666 | 8.56928 | 1411 ft | 21 kts | 276° |
| 2026-05-06 17:05 | 47.45727 | 8.56058 | 1408 ft | 146 kts | 278° |
| 2026-05-06 17:06 | 47.45862 | 8.54157 | 1482 ft | 215 kts | 275° |
| 2026-05-06 17:06 | 47.45973 | 8.52613 | 2074 ft | 225 kts | 274° |
| 2026-05-06 17:06 | 47.46131 | 8.50310 | 3590 ft | 236 kts | 275° |
| 2026-05-06 17:06 | 47.46256 | 8.47808 | 4628 ft | 252 kts | 265° |
| 2026-05-06 17:07 | 47.45617 | 8.45390 | 5525 ft | 261 kts | 227° |
| 2026-05-06 17:07 | 47.44092 | 8.44020 | 6733 ft | 262 kts | 192° |
| 2026-05-06 17:07 | 47.42296 | 8.43557 | 7717 ft | 265 kts | 199° |
| 2026-05-06 17:07 | 47.40809 | 8.41952 | 8797 ft | 273 kts | 234° |
| 2026-05-06 17:08 | 47.40054 | 8.39385 | 9955 ft | 275 kts | 249° |
| 2026-05-06 17:08 | 47.39327 | 8.36700 | 10696 ft | 292 kts | 241° |
| 2026-05-06 17:08 | 47.38334 | 8.33960 | 10988 ft | 323 kts | 242° |
| 2026-05-06 17:08 | 47.37378 | 8.30772 | 11332 ft | 355 kts | 245° |
| 2026-05-06 17:09 | 47.36337 | 8.27409 | 12289 ft | 364 kts | 243° |
| 2026-05-06 17:09 | 47.35204 | 8.24035 | 13455 ft | 369 kts | 242° |
| 2026-05-06 17:09 | 47.33886 | 8.20806 | 14328 ft | 371 kts | 228° |
| 2026-05-06 17:09 | 47.31811 | 8.18510 | 15157 ft | 381 kts | 205° |
| 2026-05-06 17:10 | 47.29256 | 8.17401 | 16175 ft | 387 kts | 190° |
| 2026-05-06 17:10 | 47.26546 | 8.17285 | 17141 ft | 396 kts | 173° |
| 2026-05-06 17:10 | 47.23925 | 8.18626 | 18106 ft | 406 kts | 150° |
| 2026-05-06 17:10 | 47.21820 | 8.21430 | 19016 ft | 416 kts | 128° |
| 2026-05-06 17:11 | 47.20577 | 8.25277 | 19962 ft | 424 kts | 107° |
| 2026-05-06 17:11 | 47.20376 | 8.29575 | 20869 ft | 435 kts | 86° |
| 2026-05-06 17:11 | 47.21062 | 8.33935 | 21611 ft | 442 kts | 77° |
| 2026-05-06 17:11 | 47.21879 | 8.38330 | 22330 ft | 449 kts | 78° |
| 2026-05-06 17:12 | 47.22634 | 8.42795 | 23106 ft | 447 kts | 83° |
| 2026-05-06 17:12 | 47.22715 | 8.47346 | 23620 ft | 447 kts | 103° |
| 2026-05-06 17:12 | 47.21650 | 8.51577 | 24296 ft | 440 kts | 125° |
| 2026-05-06 17:12 | 47.19628 | 8.54882 | 25101 ft | 433 kts | 146° |
| 2026-05-06 17:13 | 47.16969 | 8.56847 | 25864 ft | 430 kts | 166° |
| 2026-05-06 17:13 | 47.13999 | 8.57261 | 26527 ft | 433 kts | 185° |
| 2026-05-06 17:13 | 47.11096 | 8.56047 | 27152 ft | 438 kts | 204° |
| 2026-05-06 17:13 | 47.08395 | 8.53986 | 27511 ft | 437 kts | 202° |
| 2026-05-06 17:14 | 47.05482 | 8.52909 | 27814 ft | 443 kts | 184° |
| 2026-05-06 17:14 | 47.02397 | 8.52938 | 28525 ft | 443 kts | 176° |
| 2026-05-06 17:14 | 46.99329 | 8.53392 | 29261 ft | 444 kts | 173° |
| 2026-05-06 17:14 | 46.96287 | 8.53981 | 29846 ft | 448 kts | 173° |
| 2026-05-06 17:15 | 46.93195 | 8.54581 | 30421 ft | 449 kts | 174° |
| 2026-05-06 17:15 | 46.90096 | 8.55132 | 30992 ft | 448 kts | 175° |
| 2026-05-06 17:15 | 46.86997 | 8.55629 | 31549 ft | 447 kts | 175° |
| 2026-05-06 17:15 | 46.83898 | 8.56095 | 32047 ft | 448 kts | 176° |
| 2026-05-06 17:16 | 46.80791 | 8.56545 | 32544 ft | 449 kts | 176° |
| 2026-05-06 17:16 | 46.77730 | 8.56979 | 33086 ft | 447 kts | 177° |
| 2026-05-06 17:16 | 46.74632 | 8.57419 | 33679 ft | 447 kts | 177° |
| 2026-05-06 17:16 | 46.71533 | 8.57855 | 33947 ft | 451 kts | 177° |
| 2026-05-06 17:17 | 46.68400 | 8.58294 | 33914 ft | 451 kts | 177° |
| 2026-05-06 17:17 | 46.62191 | 8.59189 | 34074 ft | 442 kts | 179° |
| 2026-05-06 17:18 | 46.56148 | 8.60061 | 33973 ft | 434 kts | 179° |
| 2026-05-06 17:18 | 46.50160 | 8.60904 | 33906 ft | 434 kts | 179° |
| 2026-05-06 17:19 | 46.44158 | 8.61756 | 33916 ft | 433 kts | 179° |
| 2026-05-06 17:19 | 46.38126 | 8.62600 | 33901 ft | 438 kts | 179° |
| 2026-05-06 17:20 | 46.32041 | 8.63457 | 33886 ft | 440 kts | 179° |
| 2026-05-06 17:20 | 46.25937 | 8.64318 | 33895 ft | 439 kts | 179° |
| 2026-05-06 17:21 | 46.19904 | 8.65169 | 33882 ft | 438 kts | 180° |
| 2026-05-06 17:21 | 46.13836 | 8.66020 | 33879 ft | 438 kts | 180° |
| 2026-05-06 17:22 | 46.07810 | 8.67565 | 33888 ft | 444 kts | 171° |
| 2026-05-06 17:22 | 46.01881 | 8.70225 | 33851 ft | 446 kts | 169° |
| 2026-05-06 17:23 | 45.95955 | 8.72861 | 33822 ft | 445 kts | 170° |
| 2026-05-06 17:23 | 45.90094 | 8.75441 | 33855 ft | 443 kts | 170° |
| 2026-05-06 17:24 | 45.84210 | 8.78023 | 33859 ft | 442 kts | 170° |
| 2026-05-06 17:24 | 45.78321 | 8.80601 | 33843 ft | 443 kts | 170° |
| 2026-05-06 17:25 | 45.72428 | 8.83170 | 33864 ft | 443 kts | 170° |
| 2026-05-06 17:25 | 45.66567 | 8.85719 | 33854 ft | 443 kts | 170° |
| 2026-05-06 17:26 | 45.60662 | 8.88285 | 33844 ft | 443 kts | 170° |
| 2026-05-06 17:26 | 45.54764 | 8.90843 | 33840 ft | 443 kts | 170° |
| 2026-05-06 17:27 | 45.48868 | 8.93394 | 33837 ft | 443 kts | 170° |
| 2026-05-06 17:27 | 45.42974 | 8.95939 | 33773 ft | 442 kts | 170° |
| 2026-05-06 17:28 | 45.37146 | 8.98450 | 33812 ft | 440 kts | 170° |
| 2026-05-06 17:28 | 45.31281 | 9.00970 | 33816 ft | 440 kts | 170° |
| 2026-05-06 17:29 | 45.25415 | 9.03485 | 33806 ft | 441 kts | 170° |
| 2026-05-06 17:29 | 45.19536 | 9.06001 | 33801 ft | 442 kts | 171° |
| 2026-05-06 17:30 | 45.13685 | 9.08499 | 33807 ft | 443 kts | 171° |
| 2026-05-06 17:30 | 45.07777 | 9.11016 | 33804 ft | 443 kts | 171° |
| 2026-05-06 17:31 | 45.01868 | 9.13529 | 33784 ft | 444 kts | 171° |
| 2026-05-06 17:31 | 44.95948 | 9.16040 | 33812 ft | 444 kts | 171° |
| 2026-05-06 17:32 | 44.90061 | 9.18533 | 33777 ft | 445 kts | 171° |
| 2026-05-06 17:32 | 44.84146 | 9.21032 | 33820 ft | 443 kts | 171° |
| 2026-05-06 17:33 | 44.78242 | 9.23521 | 33809 ft | 442 kts | 171° |
| 2026-05-06 17:33 | 44.72346 | 9.26000 | 33821 ft | 441 kts | 171° |
| 2026-05-06 17:34 | 44.66468 | 9.28471 | 33861 ft | 440 kts | 171° |
| 2026-05-06 17:34 | 44.60621 | 9.30916 | 33828 ft | 442 kts | 171° |
| 2026-05-06 17:35 | 44.54722 | 9.33381 | 33858 ft | 443 kts | 171° |
| 2026-05-06 17:35 | 44.48809 | 9.35848 | 33862 ft | 443 kts | 171° |
| 2026-05-06 17:36 | 44.39915 | 9.39547 | 33872 ft | 445 kts | 171° |
| 2026-05-06 17:36 | 44.34045 | 9.41985 | 33876 ft | 445 kts | 171° |
| 2026-05-06 17:37 | 44.28111 | 9.44442 | 33890 ft | 445 kts | 171° |
| 2026-05-06 17:37 | 44.22180 | 9.46890 | 33835 ft | 444 kts | 171° |
| 2026-05-06 17:38 | 44.16281 | 9.49325 | 33894 ft | 441 kts | 171° |
| 2026-05-06 17:38 | 44.10431 | 9.51733 | 33908 ft | 441 kts | 171° |
| 2026-05-06 17:39 | 44.04540 | 9.54150 | 33917 ft | 441 kts | 171° |
| 2026-05-06 17:39 | 43.98646 | 9.56564 | 33908 ft | 442 kts | 171° |
| 2026-05-06 17:40 | 43.92744 | 9.58977 | 33905 ft | 442 kts | 171° |
| 2026-05-06 17:40 | 43.86882 | 9.61369 | 33905 ft | 442 kts | 171° |
| 2026-05-06 17:41 | 43.80977 | 9.63774 | 33899 ft | 442 kts | 171° |
| 2026-05-06 17:41 | 43.75086 | 9.66168 | 33905 ft | 443 kts | 171° |
| 2026-05-06 17:42 | 43.69165 | 9.68569 | 33916 ft | 443 kts | 171° |
| 2026-05-06 17:42 | 43.63247 | 9.70964 | 33916 ft | 443 kts | 171° |
| 2026-05-06 17:43 | 43.57372 | 9.73337 | 33911 ft | 443 kts | 171° |
| 2026-05-06 17:43 | 43.51448 | 9.75724 | 33919 ft | 444 kts | 171° |
| 2026-05-06 17:44 | 43.45510 | 9.78112 | 33916 ft | 445 kts | 171° |
| 2026-05-06 17:44 | 43.39582 | 9.80492 | 33896 ft | 446 kts | 170° |
| 2026-05-06 17:45 | 43.33642 | 9.82872 | 33916 ft | 447 kts | 170° |
| 2026-05-06 17:45 | 43.27668 | 9.85262 | 33915 ft | 448 kts | 170° |
| 2026-05-06 17:46 | 43.21676 | 9.87653 | 33923 ft | 449 kts | 170° |
| 2026-05-06 17:46 | 43.15768 | 9.90625 | 33921 ft | 458 kts | 161° |
| 2026-05-06 17:47 | 43.10000 | 9.94365 | 33922 ft | 459 kts | 161° |
| 2026-05-06 17:47 | 43.04261 | 9.98053 | 33913 ft | 459 kts | 162° |
| 2026-05-06 17:48 | 42.98471 | 10.01741 | 33893 ft | 459 kts | 162° |
| 2026-05-06 17:48 | 42.92690 | 10.05406 | 33913 ft | 458 kts | 162° |
| 2026-05-06 17:49 | 42.86912 | 10.09058 | 33917 ft | 457 kts | 162° |
| 2026-05-06 17:49 | 42.81178 | 10.12676 | 33913 ft | 457 kts | 162° |
| 2026-05-06 17:50 | 42.75402 | 10.16316 | 33902 ft | 458 kts | 162° |
| 2026-05-06 17:50 | 42.69619 | 10.19946 | 33912 ft | 457 kts | 162° |
| 2026-05-06 17:51 | 42.63853 | 10.23563 | 33904 ft | 456 kts | 162° |
| 2026-05-06 17:51 | 42.58104 | 10.27163 | 33909 ft | 455 kts | 162° |
| 2026-05-06 17:52 | 42.52401 | 10.30725 | 33905 ft | 454 kts | 162° |
| 2026-05-06 17:52 | 42.46657 | 10.34305 | 33916 ft | 454 kts | 162° |
| 2026-05-06 17:53 | 42.40906 | 10.37883 | 33920 ft | 455 kts | 162° |
| 2026-05-06 17:53 | 42.35152 | 10.41456 | 33918 ft | 455 kts | 162° |
| 2026-05-06 17:54 | 42.29427 | 10.45005 | 33924 ft | 456 kts | 162° |
| 2026-05-06 17:54 | 42.23662 | 10.48572 | 33923 ft | 456 kts | 162° |
| 2026-05-06 17:55 | 42.17895 | 10.52140 | 33921 ft | 456 kts | 162° |
| 2026-05-06 17:55 | 42.12138 | 10.55688 | 33906 ft | 456 kts | 162° |
| 2026-05-06 17:56 | 42.06369 | 10.59233 | 33914 ft | 456 kts | 162° |
| 2026-05-06 17:56 | 42.00580 | 10.62785 | 33929 ft | 458 kts | 162° |
| 2026-05-06 17:57 | 41.94811 | 10.66317 | 33936 ft | 459 kts | 162° |
| 2026-05-06 17:57 | 41.88984 | 10.69878 | 33917 ft | 460 kts | 162° |
| 2026-05-06 17:58 | 41.83154 | 10.73435 | 33942 ft | 460 kts | 162° |
| 2026-05-06 17:58 | 41.77324 | 10.76984 | 33937 ft | 460 kts | 162° |
| 2026-05-06 17:59 | 41.71497 | 10.80524 | 33945 ft | 460 kts | 162° |
| 2026-05-06 17:59 | 41.65716 | 10.84030 | 33929 ft | 458 kts | 162° |
| 2026-05-06 18:00 | 41.59920 | 10.87539 | 33938 ft | 456 kts | 162° |
| 2026-05-06 18:00 | 41.54147 | 10.91024 | 33944 ft | 455 kts | 162° |
| 2026-05-06 18:01 | 41.48423 | 10.94472 | 33945 ft | 454 kts | 162° |
| 2026-05-06 18:01 | 41.42671 | 10.97932 | 33933 ft | 453 kts | 163° |
| 2026-05-06 18:02 | 41.36931 | 11.01378 | 33946 ft | 452 kts | 163° |
| 2026-05-06 18:02 | 41.31193 | 11.04816 | 33952 ft | 452 kts | 163° |
| 2026-05-06 18:03 | 41.25458 | 11.08244 | 33953 ft | 452 kts | 163° |
| 2026-05-06 18:03 | 41.19759 | 11.11646 | 33947 ft | 451 kts | 162° |
| 2026-05-06 18:04 | 41.14035 | 11.15056 | 33953 ft | 451 kts | 162° |
| 2026-05-06 18:04 | 41.08314 | 11.18458 | 33952 ft | 450 kts | 162° |
| 2026-05-06 18:05 | 41.02596 | 11.21851 | 33955 ft | 450 kts | 163° |
| 2026-05-06 18:05 | 40.96910 | 11.25218 | 33945 ft | 450 kts | 162° |
| 2026-05-06 18:06 | 40.91179 | 11.28605 | 33959 ft | 451 kts | 162° |
| 2026-05-06 18:06 | 40.85440 | 11.31991 | 33965 ft | 453 kts | 162° |
| 2026-05-06 18:07 | 40.79667 | 11.35389 | 33969 ft | 455 kts | 162° |
| 2026-05-06 18:07 | 40.73904 | 11.38775 | 33966 ft | 458 kts | 162° |
| 2026-05-06 18:08 | 40.68065 | 11.42201 | 33974 ft | 461 kts | 162° |
| 2026-05-06 18:08 | 40.62196 | 11.45638 | 33970 ft | 462 kts | 162° |
| 2026-05-06 18:09 | 40.56320 | 11.49074 | 33978 ft | 462 kts | 162° |
| 2026-05-06 18:09 | 40.50478 | 11.52482 | 33975 ft | 463 kts | 162° |
| 2026-05-06 18:10 | 40.44590 | 11.55910 | 33982 ft | 463 kts | 162° |
| 2026-05-06 18:10 | 40.38697 | 11.59334 | 33986 ft | 463 kts | 162° |
| 2026-05-06 18:11 | 40.32805 | 11.62752 | 33986 ft | 463 kts | 162° |
| 2026-05-06 18:11 | 40.26909 | 11.66164 | 33984 ft | 464 kts | 162° |
| 2026-05-06 18:12 | 40.21045 | 11.69552 | 33982 ft | 464 kts | 161° |
| 2026-05-06 18:12 | 40.15141 | 11.72957 | 33990 ft | 464 kts | 161° |
| 2026-05-06 18:13 | 40.09234 | 11.76357 | 33992 ft | 464 kts | 161° |
| 2026-05-06 18:13 | 40.03328 | 11.79751 | 33994 ft | 464 kts | 161° |
| 2026-05-06 18:14 | 39.97465 | 11.83114 | 33994 ft | 463 kts | 161° |
| 2026-05-06 18:14 | 39.91565 | 11.86492 | 33994 ft | 463 kts | 161° |
| 2026-05-06 18:15 | 39.85684 | 11.89930 | 33975 ft | 465 kts | 158° |
| 2026-05-06 18:15 | 39.79939 | 11.93763 | 33994 ft | 464 kts | 157° |
| 2026-05-06 18:16 | 39.74212 | 11.97622 | 34000 ft | 463 kts | 158° |
| 2026-05-06 18:16 | 39.68526 | 12.01432 | 33999 ft | 463 kts | 158° |
| 2026-05-06 18:17 | 39.62799 | 12.05247 | 33981 ft | 463 kts | 157° |
| 2026-05-06 18:17 | 39.57070 | 12.09052 | 33991 ft | 463 kts | 157° |
| 2026-05-06 18:18 | 39.51333 | 12.12856 | 34000 ft | 464 kts | 157° |
| 2026-05-06 18:18 | 39.45623 | 12.16634 | 34000 ft | 464 kts | 157° |
| 2026-05-06 18:19 | 39.39870 | 12.20431 | 33999 ft | 465 kts | 157° |
| 2026-05-06 18:19 | 39.34102 | 12.24233 | 33990 ft | 465 kts | 157° |
| 2026-05-06 18:20 | 39.28330 | 12.28031 | 33999 ft | 466 kts | 157° |
| 2026-05-06 18:20 | 39.22589 | 12.31803 | 33998 ft | 466 kts | 157° |
| 2026-05-06 18:21 | 39.16807 | 12.35593 | 33994 ft | 467 kts | 157° |
| 2026-05-06 18:21 | 39.11015 | 12.39383 | 34001 ft | 467 kts | 157° |
| 2026-05-06 18:22 | 39.05213 | 12.43173 | 33987 ft | 469 kts | 157° |
| 2026-05-06 18:22 | 38.99379 | 12.46976 | 33996 ft | 471 kts | 157° |
| 2026-05-06 18:23 | 38.93556 | 12.50764 | 33989 ft | 473 kts | 157° |
| 2026-05-06 18:23 | 38.87680 | 12.54582 | 33975 ft | 474 kts | 157° |
| 2026-05-06 18:24 | 38.81801 | 12.58395 | 33986 ft | 473 kts | 157° |
| 2026-05-06 18:24 | 38.75933 | 12.62193 | 33984 ft | 472 kts | 157° |
| 2026-05-06 18:25 | 38.70066 | 12.65982 | 33976 ft | 472 kts | 157° |
| 2026-05-06 18:25 | 38.64251 | 12.69732 | 33963 ft | 471 kts | 157° |
| 2026-05-06 18:26 | 38.58393 | 12.73501 | 33967 ft | 472 kts | 157° |
| 2026-05-06 18:26 | 38.52526 | 12.77269 | 33960 ft | 472 kts | 157° |
| 2026-05-06 18:27 | 38.46680 | 12.81017 | 33965 ft | 474 kts | 157° |
| 2026-05-06 18:27 | 38.40776 | 12.84795 | 33949 ft | 476 kts | 157° |
| 2026-05-06 18:28 | 38.34835 | 12.88590 | 33947 ft | 479 kts | 157° |
| 2026-05-06 18:28 | 38.28884 | 12.92384 | 33948 ft | 481 kts | 157° |
| 2026-05-06 18:29 | 38.22888 | 12.96201 | 33939 ft | 482 kts | 158° |
| 2026-05-06 18:29 | 38.16928 | 12.99989 | 33936 ft | 482 kts | 158° |
| 2026-05-06 18:30 | 38.10913 | 13.03804 | 33944 ft | 484 kts | 158° |
| 2026-05-06 18:30 | 38.04868 | 13.07629 | 33948 ft | 487 kts | 158° |
| 2026-05-06 18:31 | 37.98791 | 13.11468 | 33951 ft | 489 kts | 158° |
| 2026-05-06 18:31 | 37.92713 | 13.15302 | 33945 ft | 486 kts | 158° |
| 2026-05-06 18:32 | 37.86684 | 13.19098 | 33939 ft | 491 kts | 158° |
| 2026-05-06 18:32 | 37.80509 | 13.22972 | 33956 ft | 498 kts | 158° |
| 2026-05-06 18:33 | 37.74317 | 13.26858 | 33944 ft | 493 kts | 158° |
| 2026-05-06 18:33 | 37.68200 | 13.30692 | 33935 ft | 490 kts | 159° |
| 2026-05-06 18:34 | 37.62126 | 13.34486 | 33940 ft | 491 kts | 158° |
| 2026-05-06 18:34 | 37.55998 | 13.38306 | 33940 ft | 492 kts | 159° |
| 2026-05-06 18:35 | 37.49901 | 13.42101 | 33894 ft | 488 kts | 159° |
| 2026-05-06 18:35 | 37.46894 | 13.43975 | 33569 ft | 478 kts | 159° |
| 2026-05-06 18:35 | 37.43921 | 13.45824 | 32764 ft | 476 kts | 158° |
| 2026-05-06 18:36 | 37.40942 | 13.47670 | 31701 ft | 479 kts | 158° |
| 2026-05-06 18:36 | 37.37933 | 13.49531 | 30592 ft | 484 kts | 157° |
| 2026-05-06 18:36 | 37.34954 | 13.51373 | 29679 ft | 482 kts | 156° |
| 2026-05-06 18:36 | 37.31967 | 13.53225 | 28894 ft | 476 kts | 156° |
| 2026-05-06 18:37 | 37.29020 | 13.55051 | 28171 ft | 469 kts | 156° |
| 2026-05-06 18:37 | 37.27090 | 13.56245 | 27700 ft | 465 kts | 156° |
| 2026-05-06 18:37 | 37.23234 | 13.58627 | 26718 ft | 458 kts | 157° |
| 2026-05-06 18:37 | 37.20386 | 13.60383 | 25971 ft | 455 kts | 157° |
| 2026-05-06 18:38 | 37.17557 | 13.62126 | 25268 ft | 451 kts | 157° |
| 2026-05-06 18:38 | 37.14754 | 13.63852 | 24578 ft | 447 kts | 157° |
| 2026-05-06 18:38 | 37.12001 | 13.65520 | 23918 ft | 443 kts | 159° |
| 2026-05-06 18:38 | 37.09187 | 13.67016 | 23265 ft | 437 kts | 161° |
| 2026-05-06 18:39 | 37.06387 | 13.68451 | 22640 ft | 431 kts | 161° |
| 2026-05-06 18:39 | 37.03631 | 13.69853 | 22085 ft | 424 kts | 162° |
| 2026-05-06 18:39 | 37.00919 | 13.71234 | 21549 ft | 418 kts | 162° |
| 2026-05-06 18:40 | 36.95613 | 13.73945 | 20538 ft | 406 kts | 162° |
| 2026-05-06 18:40 | 36.93014 | 13.75276 | 20110 ft | 401 kts | 162° |
| 2026-05-06 18:40 | 36.90424 | 13.76601 | 19944 ft | 406 kts | 163° |
| 2026-05-06 18:40 | 36.87783 | 13.77947 | 19929 ft | 414 kts | 162° |
| 2026-05-06 18:41 | 36.85139 | 13.79296 | 19920 ft | 418 kts | 162° |
| 2026-05-06 18:41 | 36.82446 | 13.80673 | 19916 ft | 418 kts | 162° |
| 2026-05-06 18:41 | 36.79761 | 13.82049 | 19913 ft | 417 kts | 162° |
| 2026-05-06 18:41 | 36.77083 | 13.83419 | 19913 ft | 416 kts | 162° |
| 2026-05-06 18:42 | 36.74410 | 13.84785 | 19918 ft | 416 kts | 162° |
| 2026-05-06 18:42 | 36.71735 | 13.86149 | 19901 ft | 416 kts | 162° |
| 2026-05-06 18:42 | 36.69051 | 13.87517 | 19911 ft | 417 kts | 162° |
| 2026-05-06 18:42 | 36.66372 | 13.88882 | 19640 ft | 415 kts | 162° |
| 2026-05-06 18:43 | 36.63740 | 13.90222 | 19044 ft | 413 kts | 163° |
| 2026-05-06 18:43 | 36.61089 | 13.91572 | 18414 ft | 411 kts | 163° |
| 2026-05-06 18:43 | 36.58449 | 13.92913 | 17730 ft | 408 kts | 163° |
| 2026-05-06 18:43 | 36.55832 | 13.94243 | 17131 ft | 403 kts | 163° |
| 2026-05-06 18:44 | 36.53256 | 13.95551 | 16580 ft | 397 kts | 163° |
| 2026-05-06 18:44 | 36.50721 | 13.96838 | 16137 ft | 391 kts | 163° |
| 2026-05-06 18:44 | 36.48171 | 13.98125 | 15962 ft | 397 kts | 163° |
| 2026-05-06 18:44 | 36.45631 | 13.99410 | 15907 ft | 387 kts | 163° |
| 2026-05-06 18:45 | 36.43199 | 14.00647 | 15867 ft | 369 kts | 163° |
| 2026-05-06 18:45 | 36.40901 | 14.01817 | 15772 ft | 354 kts | 164° |
| 2026-05-06 18:45 | 36.38670 | 14.02948 | 15673 ft | 339 kts | 164° |
| 2026-05-06 18:45 | 36.37211 | 14.03686 | 15613 ft | 330 kts | 165° |
| 2026-05-06 18:46 | 36.34472 | 14.05070 | 15502 ft | 312 kts | 165° |
| 2026-05-06 18:46 | 36.32497 | 14.06065 | 15371 ft | 301 kts | 165° |
| 2026-05-06 18:46 | 36.30599 | 14.07021 | 15056 ft | 287 kts | 166° |
| 2026-05-06 18:46 | 36.28759 | 14.07945 | 14327 ft | 285 kts | 166° |
| 2026-05-06 18:47 | 36.26928 | 14.08860 | 13498 ft | 282 kts | 165° |
| 2026-05-06 18:47 | 36.25121 | 14.09764 | 12607 ft | 278 kts | 164° |
| 2026-05-06 18:47 | 36.23343 | 14.10655 | 11740 ft | 274 kts | 163° |
| 2026-05-06 18:47 | 36.21612 | 14.11520 | 10915 ft | 270 kts | 163° |
| 2026-05-06 18:48 | 36.19880 | 14.12379 | 10089 ft | 266 kts | 162° |
| 2026-05-06 18:48 | 36.18186 | 14.13232 | 9227 ft | 261 kts | 161° |
| 2026-05-06 18:48 | 36.16523 | 14.14072 | 8348 ft | 255 kts | 161° |
| 2026-05-06 18:48 | 36.14896 | 14.14891 | 7512 ft | 250 kts | 160° |
| 2026-05-06 18:49 | 36.13299 | 14.15692 | 6674 ft | 246 kts | 159° |
| 2026-05-06 18:49 | 36.11724 | 14.16480 | 5840 ft | 244 kts | 158° |
| 2026-05-06 18:49 | 36.10166 | 14.17261 | 5330 ft | 244 kts | 158° |
| 2026-05-06 18:49 | 36.08600 | 14.18046 | 5178 ft | 244 kts | 157° |
| 2026-05-06 18:50 | 36.07042 | 14.18826 | 4993 ft | 244 kts | 157° |
| 2026-05-06 18:50 | 36.05468 | 14.19614 | 4945 ft | 242 kts | 157° |
| 2026-05-06 18:50 | 36.04074 | 14.20665 | 4812 ft | 230 kts | 134° |
| 2026-05-06 18:50 | 36.03153 | 14.22319 | 4874 ft | 239 kts | 118° |
| 2026-05-06 18:51 | 36.02526 | 14.24256 | 4691 ft | 247 kts | 113° |
| 2026-05-06 18:51 | 36.01969 | 14.26226 | 4570 ft | 235 kts | 112° |
| 2026-05-06 18:51 | 36.01332 | 14.27938 | 4477 ft | 204 kts | 127° |
| 2026-05-06 18:51 | 36.00495 | 14.29217 | 4287 ft | 181 kts | 132° |
| 2026-05-06 18:52 | 35.99705 | 14.30281 | 4131 ft | 163 kts | 134° |
| 2026-05-06 18:52 | 35.98937 | 14.31268 | 3924 ft | 157 kts | 134° |
| 2026-05-06 18:52 | 35.98204 | 14.32194 | 3731 ft | 149 kts | 134° |
| 2026-05-06 18:52 | 35.97471 | 14.33114 | 3523 ft | 149 kts | 133° |
| 2026-05-06 18:53 | 35.96773 | 14.33989 | 3348 ft | 137 kts | 135° |
| 2026-05-06 18:53 | 35.96139 | 14.34779 | 3167 ft | 124 kts | 134° |
| 2026-05-06 18:53 | 35.95548 | 14.35516 | 3013 ft | 121 kts | 135° |
| 2026-05-06 18:53 | 35.94946 | 14.36270 | 2883 ft | 124 kts | 134° |
| 2026-05-06 18:54 | 35.94356 | 14.37006 | 2714 ft | 119 kts | 135° |
| 2026-05-06 18:54 | 35.93771 | 14.37735 | 2528 ft | 118 kts | 136° |
| 2026-05-06 18:54 | 35.93190 | 14.38461 | 2416 ft | 121 kts | 135° |
| 2026-05-06 18:54 | 35.92593 | 14.39205 | 2233 ft | 118 kts | 135° |
| 2026-05-06 18:55 | 35.92035 | 14.39899 | 2098 ft | 110 kts | 133° |
| 2026-05-06 18:55 | 35.91513 | 14.40551 | 1939 ft | 103 kts | 132° |
| 2026-05-06 18:55 | 35.91006 | 14.41190 | 1835 ft | 104 kts | 133° |
| 2026-05-06 18:55 | 35.90492 | 14.41825 | 1679 ft | 104 kts | 132° |
| 2026-05-06 18:56 | 35.89990 | 14.42452 | 1543 ft | 103 kts | 133° |
| 2026-05-06 18:56 | 35.89486 | 14.43084 | 1397 ft | 106 kts | 135° |
| 2026-05-06 18:56 | 35.88955 | 14.43725 | 1296 ft | 107 kts | 135° |
| 2026-05-06 18:56 | 35.88435 | 14.44391 | 1193 ft | 109 kts | 133° |
| 2026-05-06 18:57 | 35.87905 | 14.45079 | 984 ft | 113 kts | 130° |
| 2026-05-06 18:57 | 35.87375 | 14.45751 | 840 ft | 105 kts | 133° |
| 2026-05-06 18:57 | 35.86834 | 14.46396 | 655 ft | 113 kts | 131° |
| 2026-05-06 18:57 | 35.86292 | 14.47060 | 544 ft | 109 kts | 131° |
| 2026-05-06 18:58 | 35.85777 | 14.47698 | 359 ft | 102 kts | 125° |
| 2026-05-06 18:58 | 35.85285 | 14.48315 | 291 ft | 96 kts | 125° |
| 2026-05-06 18:58 | 35.84907 | 14.48799 | 263 ft | 54 kts | 134° |
| 2026-05-06 18:58 | 35.84746 | 14.48999 | 263 ft | 30 kts | 135° |
| 2026-05-06 18:59 | 35.84607 | 14.49168 | 263 ft | 21 kts | 135° |
| 2026-05-06 18:59 | 35.84505 | 14.49292 | 263 ft | 20 kts | 129° |
| 2026-05-06 18:59 | 35.84456 | 14.49455 | 263 ft | 20 kts | 108° |
| 2026-05-06 18:59 | 35.84447 | 14.49497 | 263 ft | 1 kts | 96° |
| 2026-05-06 19:00 | 35.84450 | 14.49516 | 263 ft | 4 kts | 81° |
| 2026-05-06 19:00 | 35.84486 | 14.49567 | 263 ft | 13 kts | 22° |
| 2026-05-06 19:00 | 35.84568 | 14.49538 | 263 ft | 13 kts | 358° |
| 2026-05-06 19:00 | 35.84625 | 14.49567 | 263 ft | 13 kts | 14° |
| 2026-05-06 19:01 | 35.84727 | 14.49519 | 263 ft | 1 kts | 318° |
| 2026-05-06 19:01 | 35.84745 | 14.49498 | 263 ft | 7 kts | 315° |
| 2026-05-06 19:01 | 35.84777 | 14.49456 | 263 ft | 1 kts | 313° |
| 2026-05-06 19:01 | 35.84800 | 14.49423 | 263 ft | 9 kts | 304° |
| 2026-05-06 19:02 | 35.84826 | 14.49361 | 263 ft | 7 kts | 258° |
| 2026-05-06 19:02 | 35.84804 | 14.49318 | 263 ft | 5 kts | 227° |
| 2026-05-06 19:02 | 35.84794 | 14.49305 | 263 ft | 0 kts | 226° |
| 2026-05-06 19:03 | 35.86375 | 14.46951 | 597 ft | 109 kts | 132° |
| 2026-05-06 19:03 | 35.85845 | 14.47615 | 364 ft | 102 kts | 126° |
| 2026-05-06 19:03 | 35.85312 | 14.48281 | 293 ft | 97 kts | 125° |
| 2026-05-06 19:04 | 35.85341 | 14.48245 | 296 ft | 99 kts | 125° |
| 2026-05-06 19:04 | 35.85651 | 14.47855 | 325 ft | 104 kts | 125° |